createdAt,value
2019-02-21T00:00:49.154Z,7.92
2019-02-21T00:05:52.586Z,8.10
2019-02-21T00:10:58.535Z,6.75
2019-02-21T00:16:01.869Z,11.05
2019-02-21T00:21:05.331Z,7.60
2019-02-21T00:26:08.725Z,6.67
2019-02-21T00:31:13.753Z,7.45
2019-02-21T00:36:19.129Z,6.55
2019-02-21T00:41:22.972Z,7.55
2019-02-21T00:46:26.480Z,4.85
2019-02-21T00:51:29.966Z,6.15
2019-02-21T00:56:33.252Z,8.15
2019-02-21T01:01:36.825Z,4.37
2019-02-21T01:06:40.176Z,6.33
2019-02-21T01:11:44.244Z,7.42
2019-02-21T01:16:47.525Z,7.25
2019-02-21T01:21:52.200Z,6.37
2019-02-21T01:26:55.638Z,6.60
2019-02-21T01:32:00.758Z,5.58
2019-02-21T01:37:04.036Z,5.85
2019-02-21T01:42:09.071Z,6.22
2019-02-21T01:47:15.622Z,5.25
2019-02-21T01:52:19.021Z,6.53
2019-02-21T01:57:22.440Z,7.03
2019-02-21T02:02:27.350Z,6.35
2019-02-21T02:07:30.603Z,8.30
2019-02-21T02:12:34.009Z,6.00
2019-02-21T02:17:37.422Z,5.05
2019-02-21T02:22:40.837Z,6.80
2019-02-21T02:27:44.263Z,6.45
2019-02-21T02:32:47.547Z,7.65
2019-02-21T02:37:52.217Z,5.55
2019-02-21T02:42:56.153Z,6.53
2019-02-21T02:47:59.420Z,7.08
2019-02-21T02:53:02.900Z,7.25
2019-02-21T02:58:06.654Z,5.65
2019-02-21T03:03:10.240Z,5.65
2019-02-21T03:08:14.120Z,6.30
2019-02-21T03:13:17.737Z,7.40
2019-02-21T03:18:21.070Z,7.70
2019-02-21T03:23:25.537Z,8.20
2019-02-21T03:28:30.541Z,5.87
2019-02-21T03:33:33.833Z,5.72
2019-02-21T03:38:37.771Z,6.70
2019-02-21T03:43:41.188Z,6.75
2019-02-21T03:48:46.817Z,7.92
2019-02-21T03:53:50.174Z,6.15
2019-02-21T03:58:53.453Z,6.35
2019-02-21T04:03:56.743Z,6.12
2019-02-21T04:09:00.021Z,7.17
2019-02-21T04:14:03.520Z,5.80
2019-02-21T04:19:07.963Z,7.72
2019-02-21T04:24:11.368Z,8.28
2019-02-21T04:29:16.284Z,7.90
2019-02-21T04:34:19.641Z,6.92
2019-02-21T04:39:23.046Z,8.55
2019-02-21T04:44:27.141Z,7.62
2019-02-21T04:49:32.097Z,7.30
2019-02-21T04:54:36.325Z,6.75
2019-02-21T04:59:40.970Z,8.50
2019-02-21T05:04:44.351Z,8.28
2019-02-21T05:09:57.456Z,8.35
2019-02-21T05:14:53.097Z,7.50
2019-02-21T05:19:57.891Z,7.78
2019-02-21T05:25:01.352Z,7.17
2019-02-21T05:30:07.149Z,10.03
2019-02-21T05:35:18.061Z,8.10
2019-02-21T05:40:42.602Z,7.33
2019-02-21T05:45:47.537Z,9.33
2019-02-21T05:51:08.640Z,21.07
2019-02-21T05:56:33.667Z,14.43
2019-02-21T06:01:46.081Z,19.42
2019-02-21T06:06:57.079Z,18.37
2019-02-21T06:12:05.234Z,16.70
2019-02-21T06:17:12.862Z,14.30
2019-02-21T06:22:20.528Z,18.25
2019-02-21T06:27:25.467Z,16.23
2019-02-21T06:32:30.070Z,18.87
2019-02-21T06:37:34.445Z,47.80
2019-02-21T06:42:39.504Z,54.53
2019-02-21T06:47:42.918Z,139.40
2019-02-21T06:52:46.681Z,99.07
2019-02-21T06:57:52.274Z,76.60
2019-02-21T07:02:57.458Z,74.53
2019-02-21T07:08:00.846Z,68.05
2019-02-21T07:13:04.277Z,59.88
2019-02-21T07:18:07.689Z,59.10
2019-02-21T07:23:12.066Z,58.33
2019-02-21T07:28:16.066Z,52.85
2019-02-21T07:33:28.629Z,51.08
2019-02-21T07:38:26.026Z,41.35
2019-02-21T07:43:29.316Z,47.50
2019-02-21T07:48:33.353Z,42.20
2019-02-21T07:53:36.780Z,44.98
2019-02-21T07:58:42.549Z,41.40
2019-02-21T08:03:48.511Z,41.23
2019-02-21T08:08:51.624Z,34.13
2019-02-21T08:13:54.945Z,34.70
2019-02-21T08:18:59.425Z,36.00
2019-02-21T08:24:04.435Z,34.58
2019-02-21T08:29:07.721Z,33.15
2019-02-21T08:34:17.185Z,28.98
2019-02-21T08:39:22.061Z,30.77
2019-02-21T08:44:28.710Z,31.90
2019-02-21T08:49:34.721Z,30.20
2019-02-21T08:54:38.133Z,26.95
2019-02-21T08:59:42.328Z,26.37
2019-02-21T09:04:47.389Z,24.65
2019-02-21T09:09:51.232Z,25.65
2019-02-21T09:14:54.674Z,23.20
2019-02-21T09:19:58.077Z,25.80
2019-02-21T09:25:03.664Z,23.00
2019-02-21T09:30:12.941Z,19.37
2019-02-21T09:35:17.874Z,23.30
2019-02-21T09:40:21.733Z,21.33
2019-02-21T09:45:25.027Z,20.68
2019-02-21T09:50:29.955Z,20.50
2019-02-21T09:55:33.245Z,18.37
2019-02-21T10:00:38.256Z,18.62
2019-02-21T10:05:41.793Z,22.48
2019-02-21T10:10:45.203Z,14.98
2019-02-21T10:15:48.493Z,17.40
2019-02-21T10:20:51.930Z,16.45
2019-02-21T10:25:55.345Z,18.37
2019-02-21T10:30:58.761Z,21.27
2019-02-21T10:36:02.443Z,18.87
2019-02-21T10:41:08.692Z,17.23
2019-02-21T10:46:11.556Z,16.95
2019-02-21T10:51:15.128Z,15.48
2019-02-21T10:56:19.306Z,16.48
2019-02-21T11:01:23.363Z,13.95
2019-02-21T11:06:26.651Z,16.67
2019-02-21T11:11:30.807Z,16.42
2019-02-21T11:16:36.396Z,13.38
2019-02-21T11:21:40.472Z,16.52
2019-02-21T11:26:45.023Z,14.38
2019-02-21T11:31:48.441Z,13.85
2019-02-21T11:36:51.944Z,15.28
2019-02-21T11:41:55.357Z,13.35
2019-02-21T11:47:00.212Z,12.98
2019-02-21T11:52:10.182Z,13.88
2019-02-21T11:57:09.151Z,12.58
2019-02-21T12:02:12.613Z,15.20
2019-02-21T12:07:15.909Z,17.10
2019-02-21T12:12:19.329Z,13.13
2019-02-21T12:17:23.423Z,14.23
2019-02-21T12:22:27.137Z,15.08
2019-02-21T12:27:30.596Z,15.48
2019-02-21T12:32:34.234Z,12.85
2019-02-21T12:37:37.718Z,14.25
2019-02-21T12:42:41.850Z,13.93
2019-02-21T12:47:50.952Z,10.80
2019-02-21T12:52:50.412Z,13.80
2019-02-21T12:57:53.772Z,11.25
2019-02-21T13:02:57.177Z,12.35
2019-02-21T13:08:00.592Z,12.23
2019-02-21T13:13:03.872Z,12.18
2019-02-21T13:18:15.378Z,11.05
2019-02-21T13:23:12.186Z,10.98
2019-02-21T13:28:16.349Z,9.78
2019-02-21T13:33:19.781Z,12.93
2019-02-21T13:38:23.753Z,10.18
2019-02-21T13:43:27.169Z,10.70
2019-02-21T13:48:30.584Z,10.80
2019-02-21T13:53:34.246Z,11.15
2019-02-21T13:58:38.536Z,9.63
2019-02-21T14:03:42.099Z,11.15
2019-02-21T14:08:46.038Z,10.58
2019-02-21T14:13:49.315Z,10.82
2019-02-21T14:18:54.264Z,9.80
2019-02-21T14:23:57.812Z,10.82
2019-02-21T14:29:01.337Z,8.80
2019-02-21T14:34:04.947Z,8.60
2019-02-21T14:39:10.525Z,9.25
2019-02-21T14:44:13.628Z,8.05
2019-02-21T14:49:17.035Z,11.10
2019-02-21T14:54:20.597Z,10.18
2019-02-21T14:59:24.752Z,7.53
2019-02-21T15:04:28.320Z,7.47
2019-02-21T15:09:31.717Z,8.35
2019-02-21T15:14:35.131Z,7.78
2019-02-21T15:19:39.201Z,7.97
2019-02-21T15:24:42.484Z,8.50
2019-02-21T15:29:46.865Z,7.58
2019-02-21T15:34:51.993Z,8.25
2019-02-21T15:39:55.352Z,7.58
2019-02-21T15:45:00.726Z,8.35
2019-02-21T15:50:06.832Z,6.42
2019-02-21T15:55:13.241Z,7.70
2019-02-21T16:00:18.449Z,7.42
2019-02-21T16:05:21.724Z,7.35
2019-02-21T16:10:26.244Z,8.85
2019-02-21T16:15:29.801Z,7.22
2019-02-21T16:20:34.507Z,7.53
2019-02-21T16:25:37.836Z,7.80
2019-02-21T16:30:43.434Z,6.85
2019-02-21T16:35:47.006Z,6.75
2019-02-21T16:40:50.373Z,8.35
2019-02-21T16:45:54.258Z,8.98
2019-02-21T16:50:58.147Z,8.28
2019-02-21T16:56:01.412Z,7.35
2019-02-21T17:01:05.571Z,7.53
2019-02-21T17:06:08.849Z,7.37
2019-02-21T17:11:12.141Z,7.65
2019-02-21T17:16:16.293Z,7.97
2019-02-21T17:21:21.050Z,7.22
2019-02-21T17:26:24.701Z,8.40
2019-02-21T17:31:27.997Z,7.97
2019-02-21T17:36:32.792Z,7.22
2019-02-21T17:41:36.560Z,9.48
2019-02-21T17:46:40.113Z,13.30
2019-02-21T17:51:43.526Z,10.85
2019-02-21T17:56:47.075Z,8.63
2019-02-21T18:01:50.514Z,7.85
2019-02-21T18:06:55.585Z,16.57
2019-02-21T18:11:58.995Z,14.95
2019-02-21T18:17:04.485Z,19.42
2019-02-21T18:22:07.872Z,21.85
2019-02-21T18:27:12.411Z,58.55
2019-02-21T18:32:15.825Z,38.23
2019-02-21T18:37:20.753Z,40.73
2019-02-21T18:42:24.177Z,30.35
2019-02-21T18:47:27.638Z,41.83
2019-02-21T18:52:30.928Z,33.90
2019-02-21T18:57:34.303Z,44.20
2019-02-21T19:02:38.473Z,44.03
2019-02-21T19:07:41.889Z,38.67
2019-02-21T19:12:45.289Z,37.88
2019-02-21T19:17:48.701Z,28.95
2019-02-21T19:22:52.054Z,29.80
2019-02-21T19:27:56.070Z,29.18
2019-02-21T19:32:59.540Z,26.30
2019-02-21T19:38:10.365Z,26.40
2019-02-21T19:43:07.863Z,23.42
2019-02-21T19:48:11.251Z,17.75
2019-02-21T19:53:14.670Z,19.80
2019-02-21T19:58:20.653Z,15.93
2019-02-21T20:03:24.836Z,19.85
2019-02-21T20:08:28.255Z,17.77
2019-02-21T20:13:33.844Z,14.95
2019-02-21T20:18:37.954Z,14.20
2019-02-21T20:23:41.237Z,15.70
2019-02-21T20:28:44.673Z,12.40
2019-02-21T20:33:48.088Z,15.80
2019-02-21T20:38:51.506Z,11.08
2019-02-21T20:43:54.789Z,10.40
2019-02-21T20:48:58.079Z,11.97
2019-02-21T20:54:02.170Z,12.25
2019-02-21T20:59:05.468Z,11.45
2019-02-21T21:04:11.937Z,9.83
2019-02-21T21:09:15.913Z,10.78
2019-02-21T21:14:19.197Z,10.05
2019-02-21T21:19:22.476Z,11.35
2019-02-21T21:24:26.059Z,10.13
2019-02-21T21:29:31.647Z,8.98
2019-02-21T21:34:35.079Z,9.10
2019-02-21T21:39:38.370Z,9.50
2019-02-21T21:44:41.653Z,10.60
2019-02-21T21:49:45.115Z,8.78
2019-02-21T21:54:49.539Z,9.28
2019-02-21T21:59:53.849Z,31.95
2019-02-21T22:04:57.319Z,25.08
2019-02-21T22:10:00.612Z,19.95
2019-02-21T22:15:05.993Z,19.42
2019-02-21T22:20:09.413Z,18.32
2019-02-21T22:25:13.902Z,16.30
2019-02-21T22:30:18.506Z,21.62
2019-02-21T22:35:21.924Z,19.62
2019-02-21T22:40:25.788Z,14.60
2019-02-21T22:45:29.241Z,16.75
2019-02-21T22:50:33.393Z,15.25
2019-02-21T22:55:36.801Z,8.85
2019-02-21T23:00:54.820Z,8.28
2019-02-21T23:06:27.561Z,9.80
2019-02-21T23:11:31.155Z,8.60
2019-02-21T23:16:36.026Z,9.08
2019-02-21T23:21:39.429Z,7.53
2019-02-21T23:26:42.721Z,12.50
2019-02-21T23:31:46.084Z,10.70
2019-02-21T23:36:50.963Z,8.28
2019-02-21T23:41:54.246Z,11.48
2019-02-21T23:46:57.669Z,7.10
2019-02-21T23:52:01.068Z,6.80
2019-02-21T23:57:05.980Z,7.80
